Mertzig, Luxembourg
Current Conditions -  °F | °C
As of 7:50 AM on Friday 19 Dec 2014 (Local Time) from ELLX Reporting Station
Drizzle Drizzle  
Wind Chill: 41°   Ceiling: 600
Heat Index: 48°   Visibility: 3mi
Dew Point: 46°   Wind: 20mph
Humidity: 93%   Direction: 220°SW
Pressure: 30"   Gusts: NA
Location:  49.83°N, 6.01°E
Report Text: ELLX 190650Z 22017KT 190V250 5000 -DZ BKN006 09/08 Q1016 TEMPO 24015G30KT
Loading
Personal Weather Stations






























Interactive Weather Map New forecast layout! Learn more

10-Day Weather Forecast

Advertisements
Track Severe Weather on mobile